createdAt,value
2024-03-02T00:00:54.373Z,37.33
2024-03-02T00:03:21.316Z,36.80
2024-03-02T00:05:52.884Z,36.13
2024-03-02T00:08:25.162Z,35.95
2024-03-02T00:10:51.792Z,33.47
2024-03-02T00:13:23.715Z,37.88
2024-03-02T00:15:54.460Z,37.60
2024-03-02T00:18:25.456Z,40.22
2024-03-02T00:20:55.840Z,42.35
2024-03-02T00:23:23.189Z,40.63
2024-03-02T00:25:50.780Z,41.45
2024-03-02T00:30:57.125Z,40.63
2024-03-02T00:33:24.573Z,42.20
2024-03-02T00:35:51.492Z,38.78
2024-03-02T00:38:18.178Z,39.05
2024-03-02T00:40:45.745Z,40.37
2024-03-02T00:45:57.244Z,39.50
2024-03-02T00:48:23.653Z,46.95
2024-03-02T00:50:53.979Z,42.45
2024-03-02T00:53:26.974Z,42.67
2024-03-02T00:55:53.775Z,41.78
2024-03-02T00:58:20.193Z,42.95
2024-03-02T01:00:46.935Z,40.60
2024-03-02T01:03:13.760Z,43.15
2024-03-02T01:05:44.255Z,39.08
2024-03-02T01:08:11.527Z,40.40
2024-03-02T01:10:37.939Z,44.15
2024-03-02T01:13:04.712Z,40.17
2024-03-02T01:15:31.258Z,39.15
2024-03-02T01:17:57.751Z,40.03
2024-03-02T01:20:24.154Z,44.10
2024-03-02T01:22:50.617Z,41.03
2024-03-02T01:25:17.085Z,43.47
2024-03-02T01:27:43.545Z,44.35
2024-03-02T01:30:10.352Z,45.70
2024-03-02T01:32:39.015Z,44.88
2024-03-02T01:35:06.957Z,47.33
2024-03-02T01:37:33.488Z,44.50
2024-03-02T01:39:59.995Z,43.80
2024-03-02T01:42:26.597Z,48.47
2024-03-02T01:44:53.046Z,46.70
2024-03-02T01:47:19.564Z,47.72
2024-03-02T01:49:45.956Z,46.22
2024-03-02T01:52:12.579Z,49.08
2024-03-02T01:54:39.043Z,46.77
2024-03-02T01:57:05.742Z,47.50
2024-03-02T01:59:32.152Z,46.15
2024-03-02T02:01:58.527Z,45.85
2024-03-02T02:04:28.724Z,49.25
2024-03-02T02:06:55.298Z,48.10
2024-03-02T02:09:21.930Z,44.25
2024-03-02T02:11:48.452Z,48.20
2024-03-02T02:14:15.027Z,49.92
2024-03-02T02:16:41.407Z,55.00
2024-03-02T02:19:07.851Z,48.65
2024-03-02T02:21:34.621Z,49.90
2024-03-02T02:24:02.311Z,45.60
2024-03-02T02:26:28.738Z,47.35
2024-03-02T02:28:55.162Z,45.28
2024-03-02T02:31:21.630Z,49.35
2024-03-02T02:33:48.153Z,45.58
2024-03-02T02:36:14.616Z,48.97
2024-03-02T02:38:45.549Z,47.70
2024-03-02T02:41:11.965Z,44.53
2024-03-02T02:43:38.424Z,48.30
2024-03-02T02:46:04.957Z,46.17
2024-03-02T02:48:31.424Z,50.57
2024-03-02T02:50:57.852Z,43.70
2024-03-02T02:53:24.270Z,50.30
2024-03-02T02:55:50.697Z,46.88
2024-03-02T02:58:17.141Z,49.50
2024-03-02T03:00:43.613Z,48.90
2024-03-02T03:03:10.073Z,51.45
2024-03-02T03:05:36.462Z,53.28
2024-03-02T03:08:03.811Z,49.97
2024-03-02T03:10:30.252Z,49.15
2024-03-02T03:12:57.375Z,49.63
2024-03-02T03:15:24.188Z,52.95
2024-03-02T03:17:51.989Z,50.63
2024-03-02T03:20:18.482Z,51.53
2024-03-02T03:22:45.218Z,52.13
2024-03-02T03:25:11.672Z,48.35
2024-03-02T03:27:38.294Z,50.38
2024-03-02T03:30:07.137Z,59.53
2024-03-02T03:32:33.663Z,62.22
2024-03-02T03:35:00.163Z,66.07
2024-03-02T03:37:28.779Z,74.45
2024-03-02T03:39:55.345Z,59.95
2024-03-02T03:42:21.873Z,67.15
2024-03-02T03:44:48.329Z,62.03
2024-03-02T03:47:14.761Z,68.03
2024-03-02T03:49:41.161Z,63.05
2024-03-02T03:52:07.565Z,64.28
2024-03-02T03:54:34.154Z,73.30
2024-03-02T03:57:00.624Z,68.53
2024-03-02T03:59:27.033Z,68.00
2024-03-02T04:01:54.093Z,65.90
2024-03-02T04:04:20.489Z,74.03
2024-03-02T04:06:46.926Z,74.35
2024-03-02T04:09:13.381Z,75.45
2024-03-02T04:11:39.858Z,73.03
2024-03-02T04:14:07.294Z,74.07
2024-03-02T04:19:00.126Z,72.67
2024-03-02T04:21:26.679Z,72.82
2024-03-02T04:23:53.132Z,77.03
2024-03-02T04:26:23.198Z,71.78
2024-03-02T04:28:49.689Z,69.45
2024-03-02T04:31:17.255Z,74.80
2024-03-02T04:33:44.188Z,76.43
2024-03-02T04:36:10.808Z,78.88
2024-03-02T04:38:37.770Z,79.43
2024-03-02T04:41:08.187Z,75.05
2024-03-02T04:43:35.477Z,74.15
2024-03-02T04:46:02.670Z,77.57
2024-03-02T04:48:29.638Z,79.97
2024-03-02T04:50:56.078Z,74.37
2024-03-02T04:53:22.493Z,74.25
2024-03-02T04:56:07.321Z,76.78
2024-03-02T04:58:33.734Z,76.85
2024-03-02T05:01:00.178Z,79.70
2024-03-02T05:03:26.877Z,76.30
2024-03-02T05:05:53.279Z,75.43
2024-03-02T05:08:19.729Z,71.05
2024-03-02T05:10:46.932Z,73.13
2024-03-02T05:13:13.362Z,70.40
2024-03-02T05:15:40.097Z,73.05
2024-03-02T05:18:06.716Z,76.82
2024-03-02T05:20:33.300Z,77.67
2024-03-02T05:22:59.691Z,71.70
2024-03-02T05:25:26.143Z,80.70
2024-03-02T05:27:52.719Z,77.65
2024-03-02T05:30:19.258Z,86.85
2024-03-02T05:32:45.744Z,73.10
2024-03-02T05:35:13.866Z,79.15
2024-03-02T05:37:40.588Z,83.88
2024-03-02T05:40:07.779Z,76.73
2024-03-02T05:42:34.248Z,82.63
2024-03-02T05:45:00.819Z,78.53
2024-03-02T05:47:27.340Z,85.47
2024-03-02T05:49:53.769Z,89.25
2024-03-02T05:52:20.247Z,97.03
2024-03-02T05:54:46.721Z,93.10
2024-03-02T05:57:33.222Z,92.95
2024-03-02T06:00:00.061Z,92.88
2024-03-02T06:02:26.470Z,93.13
2024-03-02T06:04:56.163Z,90.60
2024-03-02T06:07:22.613Z,92.72
2024-03-02T06:09:51.906Z,92.38
2024-03-02T06:12:18.672Z,91.85
2024-03-02T06:14:45.142Z,98.95
2024-03-02T06:17:11.516Z,87.85
2024-03-02T06:19:38.057Z,94.10
2024-03-02T06:22:05.064Z,97.20
2024-03-02T06:24:32.098Z,97.10
2024-03-02T06:26:58.496Z,103.45
2024-03-02T06:29:24.913Z,97.38
2024-03-02T06:31:53.367Z,107.72
2024-03-02T06:34:21.157Z,101.82
2024-03-02T06:36:47.573Z,102.13
2024-03-02T06:39:14.045Z,92.95
2024-03-02T06:41:40.480Z,94.07
2024-03-02T06:44:07.604Z,103.15
2024-03-02T06:46:33.997Z,99.28
2024-03-02T06:49:00.442Z,98.30
2024-03-02T06:51:26.926Z,97.50
2024-03-02T06:53:53.359Z,89.95
2024-03-02T06:56:19.759Z,89.32
2024-03-02T06:58:46.158Z,90.18
2024-03-02T07:01:12.665Z,91.47
2024-03-02T07:03:40.512Z,88.00
2024-03-02T07:06:07.073Z,89.30
2024-03-02T07:08:33.494Z,86.55
2024-03-02T07:10:59.995Z,85.47
2024-03-02T07:13:26.675Z,84.15
2024-03-02T07:16:05.374Z,88.67
2024-03-02T07:18:32.211Z,87.47
2024-03-02T07:21:02.539Z,89.22
2024-03-02T07:23:29.224Z,85.93
2024-03-02T07:28:27.684Z,90.15
2024-03-02T07:33:27.728Z,89.38
2024-03-02T07:35:57.469Z,90.32
2024-03-02T07:38:24.267Z,87.13
2024-03-02T07:40:51.782Z,91.75
2024-03-02T07:45:45.086Z,93.90
2024-03-02T07:48:11.707Z,87.13
2024-03-02T07:50:39.926Z,93.70
2024-03-02T07:53:06.989Z,89.30
2024-03-02T07:55:33.439Z,92.13
2024-03-02T07:58:01.007Z,92.18
2024-03-02T08:00:28.791Z,88.55
2024-03-02T08:02:56.415Z,85.90
2024-03-02T08:05:22.862Z,84.68
2024-03-02T08:07:49.444Z,83.40
2024-03-02T08:10:15.829Z,86.97
2024-03-02T08:12:42.800Z,85.80
2024-03-02T08:15:09.521Z,78.88
2024-03-02T08:17:38.142Z,84.28
2024-03-02T08:20:06.220Z,82.75
2024-03-02T08:22:32.663Z,88.05
2024-03-02T08:24:59.810Z,90.50
2024-03-02T08:27:26.307Z,83.38
2024-03-02T08:29:52.728Z,87.93
2024-03-02T08:32:19.307Z,87.45
2024-03-02T08:34:45.703Z,85.13
2024-03-02T08:37:12.703Z,84.90
2024-03-02T08:39:39.562Z,79.03
2024-03-02T08:42:06.327Z,85.22
2024-03-02T08:44:32.837Z,79.10
2024-03-02T08:46:59.601Z,85.75
2024-03-02T08:49:25.996Z,82.47
2024-03-02T08:51:56.280Z,87.00
2024-03-02T08:54:23.132Z,75.68
2024-03-02T08:56:52.708Z,74.93
2024-03-02T08:59:19.213Z,84.15
2024-03-02T09:01:46.326Z,79.38
2024-03-02T09:04:12.910Z,78.85
2024-03-02T09:06:39.542Z,72.23
2024-03-02T09:09:06.059Z,78.07
2024-03-02T09:11:33.572Z,78.00
2024-03-02T09:16:32.363Z,78.20
2024-03-02T09:18:59.586Z,76.20
2024-03-02T09:21:26.648Z,76.75
2024-03-02T09:23:53.130Z,70.43
2024-03-02T09:26:21.821Z,63.28
2024-03-02T09:28:48.340Z,67.25
2024-03-02T09:31:14.938Z,68.53
2024-03-02T09:33:41.490Z,63.60
2024-03-02T09:36:18.665Z,65.50
2024-03-02T09:38:45.129Z,64.43
2024-03-02T09:41:11.879Z,59.30
2024-03-02T09:43:39.154Z,53.95
2024-03-02T09:46:06.014Z,60.03
2024-03-02T09:48:32.532Z,59.08
2024-03-02T09:51:00.189Z,63.53
2024-03-02T09:53:31.113Z,58.55
2024-03-02T09:55:57.568Z,53.97
2024-03-02T09:58:24.008Z,50.78
2024-03-02T10:00:50.733Z,50.45
2024-03-02T10:03:19.891Z,47.13
2024-03-02T10:05:46.359Z,49.50
2024-03-02T10:08:12.798Z,49.65
2024-03-02T10:10:41.530Z,46.00
2024-03-02T10:13:09.237Z,39.75
2024-03-02T10:15:36.580Z,41.47
2024-03-02T10:18:03.127Z,45.10
2024-03-02T10:20:30.329Z,41.30
2024-03-02T10:23:10.801Z,39.42
2024-03-02T10:25:43.700Z,40.00
2024-03-02T10:28:19.153Z,39.00
2024-03-02T10:30:49.980Z,39.97
2024-03-02T10:33:18.460Z,33.60
2024-03-02T10:35:45.113Z,35.97
2024-03-02T10:38:12.351Z,34.22
2024-03-02T10:40:38.869Z,29.92
2024-03-02T10:43:07.146Z,32.78
2024-03-02T10:45:34.481Z,30.48
2024-03-02T10:48:03.563Z,32.38
2024-03-02T10:50:31.104Z,37.55
2024-03-02T10:55:24.422Z,31.77
2024-03-02T10:57:57.819Z,29.20
2024-03-02T11:00:30.714Z,30.08
2024-03-02T11:02:58.976Z,24.65
2024-03-02T11:05:32.531Z,28.23
2024-03-02T11:08:04.534Z,28.70
2024-03-02T11:10:52.974Z,33.65
2024-03-02T11:13:25.598Z,34.63
2024-03-02T11:15:56.703Z,33.10
2024-03-02T11:18:23.590Z,34.88
2024-03-02T11:20:50.217Z,34.60
2024-03-02T11:23:16.760Z,34.33
2024-03-02T11:25:43.338Z,33.90
2024-03-02T11:28:12.852Z,33.60
2024-03-02T11:30:39.786Z,30.63
2024-03-02T11:33:12.381Z,27.55
2024-03-02T11:35:44.291Z,31.13
2024-03-02T11:38:11.375Z,32.75
2024-03-02T11:40:41.051Z,31.27
2024-03-02T11:43:09.137Z,33.88
2024-03-02T11:45:41.744Z,33.65
2024-03-02T11:48:13.493Z,35.83
2024-03-02T11:50:51.681Z,30.70
2024-03-02T11:53:19.423Z,34.10
2024-03-02T11:55:48.162Z,27.48
2024-03-02T11:58:22.039Z,26.67
2024-03-02T12:00:52.197Z,25.52
2024-03-02T12:03:18.771Z,25.00
2024-03-02T12:05:45.378Z,24.27
2024-03-02T12:08:13.922Z,27.17
2024-03-02T12:10:40.704Z,21.30
2024-03-02T12:13:08.800Z,30.55
2024-03-02T12:15:40.229Z,21.42
2024-03-02T12:18:07.470Z,26.98
2024-03-02T12:20:34.919Z,27.63
2024-03-02T12:23:03.716Z,24.02
2024-03-02T12:25:32.409Z,25.45
2024-03-02T12:28:01.108Z,24.35
2024-03-02T12:30:31.999Z,24.17
2024-03-02T12:32:58.559Z,22.52
2024-03-02T12:35:26.032Z,21.27
2024-03-02T12:40:21.470Z,22.98
2024-03-02T12:42:48.114Z,18.48
2024-03-02T12:45:15.071Z,24.40
2024-03-02T12:47:43.056Z,19.38
2024-03-02T12:50:11.061Z,19.75
2024-03-02T12:52:37.530Z,23.23
2024-03-02T12:55:07.932Z,20.48
2024-03-02T12:57:35.525Z,17.20
2024-03-02T13:00:14.076Z,18.02
2024-03-02T13:02:41.927Z,22.80
2024-03-02T13:05:15.156Z,22.10
2024-03-02T13:07:46.238Z,16.30
2024-03-02T13:10:13.776Z,21.85
2024-03-02T13:15:07.182Z,19.83
2024-03-02T13:17:38.163Z,20.65
2024-03-02T13:20:11.928Z,19.92
2024-03-02T13:22:38.781Z,21.08
2024-03-02T13:25:06.588Z,21.67
2024-03-02T13:27:34.006Z,21.08
2024-03-02T13:30:00.711Z,20.35
2024-03-02T13:32:27.503Z,18.53
2024-03-02T13:34:54.049Z,22.42
2024-03-02T13:37:22.311Z,22.30
2024-03-02T13:39:48.962Z,23.23
2024-03-02T13:42:16.446Z,20.40
2024-03-02T13:47:18.172Z,24.55
2024-03-02T13:49:46.887Z,17.65
2024-03-02T13:52:18.334Z,19.70
2024-03-02T13:54:46.427Z,21.65
2024-03-02T13:57:13.328Z,19.40
2024-03-02T13:59:40.718Z,18.67
2024-03-02T14:02:07.566Z,16.83
2024-03-02T14:04:37.909Z,23.02
2024-03-02T14:07:05.276Z,20.70
2024-03-02T14:09:31.966Z,22.83
2024-03-02T14:11:58.466Z,24.73
2024-03-02T14:14:25.665Z,21.05
2024-03-02T14:16:52.599Z,21.88
2024-03-02T14:19:19.081Z,26.77
2024-03-02T14:21:45.647Z,21.05
2024-03-02T14:24:12.201Z,25.47
2024-03-02T14:26:38.741Z,26.70
2024-03-02T14:29:06.256Z,20.60
2024-03-02T14:34:00.112Z,19.45
2024-03-02T14:36:28.709Z,20.17
2024-03-02T14:38:55.812Z,22.98
2024-03-02T14:41:22.718Z,20.08
2024-03-02T14:43:50.586Z,20.83
2024-03-02T14:46:18.034Z,19.92
2024-03-02T14:51:11.752Z,19.92
2024-03-02T14:53:39.183Z,22.80
2024-03-02T15:00:59.619Z,23.55
2024-03-02T15:03:26.205Z,19.87
2024-03-02T15:05:52.942Z,23.70
2024-03-02T15:08:19.413Z,21.40
2024-03-02T15:10:46.209Z,22.52
2024-03-02T15:13:12.897Z,20.17
2024-03-02T15:15:39.473Z,20.15
2024-03-02T15:18:06.857Z,21.93
2024-03-02T15:20:33.610Z,21.67
2024-03-02T15:23:00.438Z,21.38
2024-03-02T15:25:26.935Z,32.00
2024-03-02T15:27:53.510Z,32.55
2024-03-02T15:30:20.134Z,26.93
2024-03-02T15:32:46.529Z,22.67
2024-03-02T15:35:13.139Z,22.10
2024-03-02T15:37:39.543Z,22.53
2024-03-02T15:40:07.814Z,26.30
2024-03-02T15:42:35.118Z,28.63
2024-03-02T15:45:02.075Z,22.42
2024-03-02T15:47:28.959Z,24.90
2024-03-02T15:49:55.522Z,22.77
2024-03-02T15:52:22.597Z,25.00
2024-03-02T15:54:51.120Z,22.05
2024-03-02T15:57:18.076Z,21.52
2024-03-02T15:59:45.293Z,22.58
2024-03-02T16:02:11.922Z,25.02
2024-03-02T16:04:38.418Z,27.48
2024-03-02T16:07:04.931Z,29.42
2024-03-02T16:09:31.446Z,22.50
2024-03-02T16:11:58.028Z,26.10
2024-03-02T16:14:24.536Z,29.08
2024-03-02T16:16:51.101Z,26.08
2024-03-02T16:19:25.585Z,27.77
2024-03-02T16:21:59.059Z,48.42
2024-03-02T16:24:25.691Z,31.23
2024-03-02T16:26:52.140Z,27.20
2024-03-02T16:29:18.680Z,24.33
2024-03-02T16:31:45.220Z,29.53
2024-03-02T16:34:11.892Z,27.35
2024-03-02T16:36:39.376Z,28.77
2024-03-02T16:41:34.206Z,29.65
2024-03-02T16:44:03.397Z,26.27
2024-03-02T16:46:30.530Z,27.67
2024-03-02T16:48:57.021Z,27.40
2024-03-02T16:51:23.495Z,34.05
2024-03-02T16:53:49.914Z,26.25
2024-03-02T16:56:16.848Z,23.70
2024-03-02T16:58:43.242Z,30.00
2024-03-02T17:01:09.870Z,28.00
2024-03-02T17:03:36.332Z,25.57
2024-03-02T17:06:03.142Z,33.58
2024-03-02T17:08:29.644Z,30.23
2024-03-02T17:10:56.252Z,34.53
2024-03-02T17:13:22.780Z,28.60
2024-03-02T17:15:49.229Z,32.95
2024-03-02T17:18:15.876Z,33.50
2024-03-02T17:20:42.342Z,39.55
2024-03-02T17:23:08.906Z,34.03
2024-03-02T17:25:35.367Z,34.13
2024-03-02T17:28:33.074Z,46.50
2024-03-02T17:31:00.912Z,32.63
2024-03-02T17:33:27.391Z,61.85
2024-03-02T17:35:54.330Z,55.13
2024-03-02T17:38:21.006Z,46.88
2024-03-02T17:40:47.452Z,45.60
2024-03-02T17:43:14.165Z,48.97
2024-03-02T17:45:41.006Z,46.10
2024-03-02T17:48:13.140Z,43.33
2024-03-02T17:50:39.976Z,41.50
2024-03-02T17:53:06.715Z,47.53
2024-03-02T17:55:33.177Z,50.63
2024-03-02T17:57:59.809Z,80.90
2024-03-02T18:00:26.526Z,51.90
2024-03-02T18:02:53.026Z,45.42
2024-03-02T18:05:19.443Z,40.55
2024-03-02T18:07:45.984Z,50.30
2024-03-02T18:10:12.844Z,47.73
2024-03-02T18:12:39.728Z,45.40
2024-03-02T18:15:10.125Z,45.67
2024-03-02T18:17:37.050Z,58.63
2024-03-02T18:20:05.798Z,67.15
2024-03-02T18:22:33.259Z,53.60
2024-03-02T18:25:00.837Z,47.45
2024-03-02T18:27:28.094Z,63.63
2024-03-02T18:29:55.329Z,59.45
2024-03-02T18:32:22.088Z,84.97
2024-03-02T18:34:48.769Z,79.90
2024-03-02T18:37:16.501Z,60.90
2024-03-02T18:39:43.466Z,78.78
2024-03-02T18:42:10.027Z,76.45
2024-03-02T18:44:36.564Z,92.97
2024-03-02T18:47:03.158Z,81.40
2024-03-02T18:49:29.779Z,68.40
2024-03-02T18:51:56.396Z,68.40
2024-03-02T18:54:22.908Z,67.77
2024-03-02T18:56:49.390Z,64.43
2024-03-02T18:59:16.260Z,76.82
2024-03-02T19:01:42.965Z,73.00
2024-03-02T19:04:09.665Z,64.00
2024-03-02T19:06:36.205Z,64.00
2024-03-02T19:09:02.767Z,61.65
2024-03-02T19:11:29.344Z,68.23
2024-03-02T19:13:55.893Z,63.50
2024-03-02T19:16:22.787Z,66.75
2024-03-02T19:18:49.638Z,66.85
2024-03-02T19:21:16.487Z,60.00
2024-03-02T19:23:45.437Z,64.05
2024-03-02T19:26:19.386Z,61.63
2024-03-02T19:28:47.294Z,64.05
2024-03-02T19:31:14.335Z,63.40
2024-03-02T19:33:40.869Z,62.75
2024-03-02T19:36:07.563Z,68.38
2024-03-02T19:38:36.081Z,75.37
2024-03-02T19:41:02.829Z,70.38
2024-03-02T19:43:29.461Z,89.37
2024-03-02T19:45:55.954Z,143.33
2024-03-02T19:48:22.437Z,83.40
2024-03-02T19:50:49.112Z,73.95
2024-03-02T19:53:15.678Z,74.70
2024-03-02T19:55:45.071Z,65.38
2024-03-02T19:58:11.859Z,65.00
2024-03-02T20:00:38.426Z,67.30
2024-03-02T20:03:04.972Z,70.97
2024-03-02T20:05:31.477Z,64.13
2024-03-02T20:07:57.917Z,70.60
2024-03-02T20:10:24.601Z,69.63
2024-03-02T20:12:51.153Z,68.15
2024-03-02T20:15:19.871Z,76.10
2024-03-02T20:17:47.521Z,72.40
2024-03-02T20:25:08.064Z,72.30
2024-03-02T20:27:34.664Z,71.28
2024-03-02T20:30:01.185Z,61.43
2024-03-02T20:32:27.870Z,59.95
2024-03-02T20:34:54.475Z,61.03
2024-03-02T20:37:24.834Z,65.70
2024-03-02T20:39:53.920Z,64.72
2024-03-02T20:42:20.503Z,65.78
2024-03-02T20:44:46.915Z,65.32
2024-03-02T20:47:13.742Z,66.25
2024-03-02T20:49:43.490Z,67.18
2024-03-02T20:52:10.651Z,68.80
2024-03-02T20:54:38.173Z,70.07
2024-03-02T20:59:34.807Z,60.65
2024-03-02T21:02:01.587Z,61.35
2024-03-02T21:04:28.120Z,58.38
2024-03-02T21:06:54.610Z,58.92
2024-03-02T21:09:21.391Z,59.28
2024-03-02T21:11:49.534Z,53.90
2024-03-02T21:14:16.299Z,56.88
2024-03-02T21:16:42.831Z,54.83
2024-03-02T21:19:10.210Z,59.20
2024-03-02T21:21:39.021Z,58.17
2024-03-02T21:24:06.085Z,48.80
2024-03-02T21:26:32.667Z,53.75
2024-03-02T21:28:59.276Z,55.87
2024-03-02T21:31:25.717Z,55.50
2024-03-02T21:33:52.189Z,53.08
2024-03-02T21:36:18.649Z,59.55
2024-03-02T21:38:45.160Z,54.72
2024-03-02T21:41:11.552Z,50.90
2024-03-02T21:43:38.543Z,53.15
2024-03-02T21:46:05.154Z,49.60
2024-03-02T21:48:31.708Z,51.93
2024-03-02T21:50:58.247Z,51.65
2024-03-02T21:53:24.847Z,49.70
2024-03-02T21:55:51.251Z,51.47
2024-03-02T21:58:17.780Z,45.13
2024-03-02T22:00:44.331Z,51.73
2024-03-02T22:03:10.934Z,45.80
2024-03-02T22:05:37.498Z,50.05
2024-03-02T22:08:04.094Z,44.40
2024-03-02T22:10:30.890Z,41.67
2024-03-02T22:12:57.524Z,48.50
2024-03-02T22:15:24.027Z,43.53
2024-03-02T22:17:50.651Z,44.28
2024-03-02T22:20:17.119Z,43.42
2024-03-02T22:22:43.564Z,41.95
2024-03-02T22:25:10.531Z,43.53
2024-03-02T22:27:40.885Z,39.65
2024-03-02T22:30:09.214Z,45.97
2024-03-02T22:32:35.740Z,36.50
2024-03-02T22:35:02.270Z,45.08
2024-03-02T22:37:28.727Z,41.13
2024-03-02T22:39:55.363Z,39.03
2024-03-02T22:42:21.843Z,37.97
2024-03-02T22:44:48.348Z,34.67
2024-03-02T22:47:14.829Z,35.40
2024-03-02T22:49:41.334Z,36.10
2024-03-02T22:52:07.838Z,37.45
2024-03-02T22:54:34.359Z,37.00
2024-03-02T22:57:02.125Z,36.55
2024-03-02T22:59:28.741Z,34.80
2024-03-02T23:01:55.589Z,36.70
2024-03-02T23:04:22.455Z,34.17
2024-03-02T23:06:49.591Z,34.50
2024-03-02T23:09:16.216Z,33.40
2024-03-02T23:11:42.701Z,32.92
2024-03-02T23:14:09.317Z,33.55
2024-03-02T23:16:38.317Z,29.88
2024-03-02T23:19:04.968Z,31.55
2024-03-02T23:21:31.614Z,29.85
2024-03-02T23:23:58.827Z,27.02
2024-03-02T23:26:26.236Z,26.77
2024-03-02T23:28:52.867Z,26.30
2024-03-02T23:31:19.686Z,28.80
2024-03-02T23:33:48.258Z,26.15
2024-03-02T23:36:14.838Z,27.45
2024-03-02T23:38:41.260Z,25.67
2024-03-02T23:41:11.638Z,27.30
2024-03-02T23:43:38.728Z,28.38
2024-03-02T23:46:07.527Z,31.77
2024-03-02T23:48:35.167Z,24.38
2024-03-02T23:53:29.170Z,24.70
2024-03-02T23:55:59.242Z,28.55
2024-03-02T23:58:25.899Z,25.67
